Time;durP1;ratioP1;P1;durP2;ratioP2;P2;SDS_P1;SDS_P2;PMS_P1;PMS_P2;Temp;Humidity;BMP_temperature;BMP_pressure;BME280_temperature;BME280_humidity;BME280_pressure;Samples;Min_cycle;Max_cycle;Signal;HPM_P1;HPM_P2
2023/04/24 00:00:17;;;;;;;2.73;1.70;;;10.00;83.10;;;;;;5055467;28;20186;-43
2023/04/24 00:02:46;;;;;;;1.73;1.10;;;10.10;44.90;;;;;;5055443;28;20242;-45
2023/04/24 00:05:13;;;;;;;1.50;1.17;;;10.10;39.20;;;;;;5055946;28;20419;-43
2023/04/24 00:07:40;;;;;;;2.77;1.43;;;10.10;34.80;;;;;;5054143;28;20526;-44
2023/04/24 00:10:06;;;;;;;1.83;1.10;;;10.20;30.40;;;;;;5055423;28;20573;-45
2023/04/24 00:12:31;;;;;;;2.63;1.40;;;10.10;40.70;;;;;;5055823;28;20432;-44
2023/04/24 00:14:57;;;;;;;1.37;1.20;;;10.10;42.60;;;;;;5057127;28;20464;-43
2023/04/24 00:17:23;;;;;;;1.80;1.17;;;10.10;23.30;;;;;;5057051;28;20424;-45
2023/04/24 00:19:50;;;;;;;2.10;1.30;;;10.10;39.80;;;;;;5056707;28;20177;-44
2023/04/24 00:22:17;;;;;;;1.60;1.03;;;10.10;55.50;;;;;;5057050;28;20182;-43
2023/04/24 00:24:42;;;;;;;1.17;1.03;;;10.10;20.20;;;;;;5056578;28;20444;-42
2023/04/24 00:27:08;;;;;;;2.43;1.27;;;10.10;22.00;;;;;;5056211;28;20861;-43
2023/04/24 00:29:34;;;;;;;3.23;1.30;;;10.10;33.20;;;;;;5056467;28;20425;-43
2023/04/24 00:31:59;;;;;;;2.30;1.17;;;10.10;1.00;;;;;;5056769;28;20178;-41
2023/04/24 00:34:25;;;;;;;1.97;0.93;;;10.10;1.00;;;;;;5056410;28;20213;-42
2023/04/24 00:36:52;;;;;;;4.90;1.40;;;10.20;1.00;;;;;;5056696;28;20170;-42
2023/04/24 00:39:19;;;;;;;1.80;1.20;;;10.20;1.00;;;;;;5055976;28;20162;-42
2023/04/24 00:41:45;;;;;;;2.00;1.20;;;10.20;1.00;;;;;;5056076;28;20404;-43
2023/04/24 00:44:11;;;;;;;1.80;0.70;;;10.20;1.00;;;;;;5056832;28;20400;-43
2023/04/24 00:46:36;;;;;;;2.10;1.20;;;10.30;1.00;;;;;;5055512;28;20845;-43
2023/04/24 00:49:02;;;;;;;2.40;1.00;;;10.30;1.00;;;;;;5057511;28;20209;-42
2023/04/24 00:51:28;;;;;;;1.30;1.10;;;10.30;1.00;;;;;;5059838;28;20543;-42
2023/04/24 00:53:53;;;;;;;1.70;1.10;;;10.30;1.00;;;;;;5060177;28;20474;-43
2023/04/24 00:56:19;;;;;;;1.90;1.00;;;10.30;1.00;;;;;;5059530;28;20205;-43
2023/04/24 00:58:45;;;;;;;1.77;1.10;;;10.30;1.00;;;;;;5060543;28;20244;-42
2023/04/24 01:01:11;;;;;;;2.03;1.10;;;10.20;1.00;;;;;;5060338;28;20466;-43
2023/04/24 01:03:37;;;;;;;1.50;0.90;;;10.30;1.00;;;;;;5059569;28;20208;-44
2023/04/24 01:06:04;;;;;;;2.23;0.87;;;10.30;1.00;;;;;;5057675;28;20456;-43
2023/04/24 01:08:30;;;;;;;2.47;1.10;;;10.30;1.00;;;;;;5059516;28;20428;-42
2023/04/24 01:10:57;;;;;;;2.80;1.20;;;10.30;1.00;;;;;;5058442;28;20469;-42
2023/04/24 01:13:22;;;;;;;1.30;0.90;;;10.40;1.00;;;;;;5057930;28;20178;-43
2023/04/24 01:15:48;;;;;;;2.20;0.90;;;10.40;1.00;;;;;;5058368;28;20491;-43
2023/04/24 01:18:14;;;;;;;1.87;1.20;;;10.40;1.00;;;;;;5059129;28;20178;-44
2023/04/24 01:20:42;;;;;;;1.33;0.83;;;10.40;1.00;;;;;;5058571;28;20174;-42
2023/04/24 01:26:29;;;;;;;1.83;1.10;;;10.40;1.00;;;;;;5058799;28;20688;-44
2023/04/24 01:28:55;;;;;;;2.20;1.10;;;10.40;1.00;;;;;;5059186;28;20464;-42
2023/04/24 01:31:21;;;;;;;3.00;1.17;;;10.40;1.00;;;;;;5058510;28;20609;-43
2023/04/24 01:33:47;;;;;;;1.87;1.00;;;10.40;1.00;;;;;;5057923;28;20435;-43
2023/04/24 01:36:14;;;;;;;1.93;1.47;;;10.40;1.00;;;;;;5058263;28;20492;-43
2023/04/24 01:38:39;;;;;;;1.20;1.00;;;10.50;1.00;;;;;;5058725;28;20488;-43
2023/04/24 01:41:05;;;;;;;3.23;1.10;;;10.40;1.00;;;;;;5056345;28;20430;-43
2023/04/24 01:43:30;;;;;;;1.60;1.20;;;10.40;1.00;;;;;;5058856;28;20184;-44
2023/04/24 01:45:56;;;;;;;3.43;1.20;;;10.40;1.00;;;;;;5058103;28;20490;-43
2023/04/24 01:48:22;;;;;;;2.70;1.30;;;10.40;1.00;;;;;;5057556;28;20186;-43
2023/04/24 01:50:47;;;;;;;3.33;1.10;;;10.40;1.00;;;;;;5057003;28;20261;-45
2023/04/24 01:53:13;;;;;;;1.43;1.17;;;10.30;1.00;;;;;;5056161;28;20526;-44
2023/04/24 01:55:39;;;;;;;2.60;1.30;;;10.20;1.00;;;;;;5055678;28;20575;-42
2023/04/24 01:58:05;;;;;;;2.10;1.30;;;10.20;36.40;;;;;;5054413;28;20177;-43
2023/04/24 02:00:30;;;;;;;1.50;1.10;;;10.20;99.90;;;;;;5056436;28;20245;-43
2023/04/24 02:02:56;;;;;;;2.43;1.40;;;10.20;91.20;;;;;;5055829;28;20575;-48
2023/04/24 02:05:21;;;;;;;2.60;0.97;;;10.20;99.90;;;;;;5056950;28;20260;-42
2023/04/24 02:07:47;;;;;;;5.00;1.13;;;10.20;99.90;;;;;;5057027;28;20177;-42
2023/04/24 02:10:12;;;;;;;12.57;1.87;;;10.20;99.90;;;;;;5056106;28;20269;-44
2023/04/24 02:12:38;;;;;;;3.57;1.30;;;10.20;99.90;;;;;;5057381;28;20174;-44
2023/04/24 02:15:04;;;;;;;2.80;1.20;;;10.10;99.90;;;;;;5056811;28;20210;-42
2023/04/24 02:17:30;;;;;;;1.77;1.20;;;10.10;99.90;;;;;;5057021;28;20514;-44
2023/04/24 02:19:56;;;;;;;2.30;1.37;;;10.00;99.90;;;;;;5057402;28;20637;-42
2023/04/24 02:22:21;;;;;;;1.53;1.00;;;10.00;99.90;;;;;;5057641;28;20427;-44
2023/04/24 02:24:47;;;;;;;2.60;1.30;;;10.00;99.90;;;;;;5057759;28;20514;-43
2023/04/24 02:27:13;;;;;;;3.00;1.43;;;10.00;99.90;;;;;;5058018;28;20567;-43
2023/04/24 02:29:38;;;;;;;1.77;1.17;;;9.90;99.90;;;;;;5057551;28;20192;-42
2023/04/24 02:32:04;;;;;;;2.93;1.33;;;10.00;99.90;;;;;;5057462;28;20543;-42
2023/04/24 02:34:30;;;;;;;3.00;1.30;;;10.00;99.90;;;;;;5057831;28;20225;-42
2023/04/24 02:36:55;;;;;;;2.07;1.20;;;10.00;99.90;;;;;;5057487;28;20174;-44
2023/04/24 02:39:21;;;;;;;2.03;1.40;;;10.00;99.90;;;;;;5055209;28;20185;-41
2023/04/24 02:41:47;;;;;;;2.90;1.30;;;10.00;99.90;;;;;;5055001;28;20169;-42
2023/04/24 02:44:12;;;;;;;2.13;1.00;;;10.00;99.90;;;;;;5055113;28;20232;-42
2023/04/24 02:46:38;;;;;;;4.03;1.23;;;10.00;99.90;;;;;;5055201;28;20200;-42
2023/04/24 02:49:03;;;;;;;2.10;1.20;;;9.90;99.90;;;;;;5055539;28;20173;-42
2023/04/24 02:51:29;;;;;;;1.70;1.37;;;10.00;99.90;;;;;;5055386;28;20418;-45
2023/04/24 02:53:55;;;;;;;1.70;1.07;;;10.00;99.90;;;;;;5055636;28;20205;-43
2023/04/24 02:56:20;;;;;;;2.80;1.30;;;10.10;99.90;;;;;;5055943;28;20232;-43
2023/04/24 02:58:46;;;;;;;2.60;1.13;;;10.00;99.90;;;;;;5056934;28;20252;-42
2023/04/24 03:01:12;;;;;;;3.60;0.97;;;10.00;99.90;;;;;;5056534;28;20173;-41
2023/04/24 03:03:38;;;;;;;2.90;1.60;;;10.00;99.90;;;;;;5054502;28;20200;-43
2023/04/24 03:06:05;;;;;;;1.70;1.20;;;10.00;99.90;;;;;;5055629;28;20177;-43
2023/04/24 03:08:31;;;;;;;1.80;1.40;;;9.90;99.90;;;;;;5056136;28;20455;-44
2023/04/24 03:10:57;;;;;;;1.57;1.03;;;9.90;99.90;;;;;;5056624;28;20412;-43
2023/04/24 03:13:22;;;;;;;1.90;0.97;;;9.90;99.90;;;;;;5054665;28;20546;-42
2023/04/24 03:15:48;;;;;;;1.33;0.97;;;9.80;99.90;;;;;;5056145;28;20492;-41
2023/04/24 03:18:14;;;;;;;1.47;1.23;;;9.80;99.90;;;;;;5056541;28;20173;-42
2023/04/24 03:20:39;;;;;;;1.40;1.10;;;9.80;99.90;;;;;;5055546;28;20181;-42
2023/04/24 03:23:05;;;;;;;2.73;1.27;;;9.80;99.90;;;;;;5056379;28;20265;-41
2023/04/24 03:25:31;;;;;;;5.73;2.23;;;9.80;99.90;;;;;;5056276;28;20275;-43
2023/04/24 03:27:56;;;;;;;1.80;1.27;;;9.80;99.90;;;;;;5055480;28;20226;-42
2023/04/24 03:30:22;;;;;;;1.50;1.23;;;9.70;99.90;;;;;;5053898;28;20177;-43
2023/04/24 03:32:47;;;;;;;3.37;1.10;;;9.70;99.90;;;;;;5054682;28;20393;-42
2023/04/24 03:35:13;;;;;;;1.10;0.77;;;9.70;99.90;;;;;;5055101;28;20611;-43
2023/04/24 03:37:39;;;;;;;1.90;1.40;;;9.70;99.90;;;;;;5054327;28;20182;-42
2023/04/24 03:40:06;;;;;;;1.77;0.90;;;9.70;99.90;;;;;;5055061;28;20504;-42
2023/04/24 03:42:31;;;;;;;2.27;1.03;;;9.70;99.90;;;;;;5055145;28;20268;-43
2023/04/24 03:44:57;;;;;;;4.03;1.27;;;9.70;99.90;;;;;;5054451;28;20523;-42
2023/04/24 03:47:22;;;;;;;2.03;0.90;;;9.70;99.90;;;;;;5053568;28;20181;-43
2023/04/24 03:49:48;;;;;;;2.93;1.30;;;9.60;99.90;;;;;;5054542;28;20174;-41
2023/04/24 03:52:13;;;;;;;4.10;1.23;;;9.60;99.90;;;;;;5054254;28;20211;-43
2023/04/24 03:54:39;;;;;;;1.77;1.30;;;9.60;99.90;;;;;;5055053;28;20205;-42
2023/04/24 03:57:05;;;;;;;1.50;1.07;;;9.50;99.90;;;;;;5054304;28;20178;-42
2023/04/24 03:59:30;;;;;;;3.40;1.33;;;9.50;99.90;;;;;;5053762;28;20185;-43
2023/04/24 04:01:56;;;;;;;1.93;1.07;;;9.50;99.90;;;;;;5053445;28;20559;-44
2023/04/24 04:04:21;;;;;;;2.40;1.10;;;9.50;99.90;;;;;;5052569;28;20538;-44
2023/04/24 04:06:47;;;;;;;1.70;0.90;;;9.60;99.90;;;;;;5052809;28;20170;-42
2023/04/24 04:09:13;;;;;;;1.00;0.87;;;9.50;99.90;;;;;;5053396;28;20188;-43
2023/04/24 04:11:39;;;;;;;1.40;1.07;;;9.50;99.90;;;;;;5055294;28;20570;-42
2023/04/24 04:14:05;;;;;;;1.30;1.10;;;9.50;99.90;;;;;;5055016;28;20242;-44
2023/04/24 04:16:30;;;;;;;1.47;0.80;;;9.50;99.90;;;;;;5055504;28;20170;-45
2023/04/24 04:18:56;;;;;;;1.47;1.03;;;9.50;99.90;;;;;;5052430;28;20455;-42
2023/04/24 04:21:22;;;;;;;2.50;1.10;;;9.50;99.90;;;;;;5052267;28;20562;-45
2023/04/24 04:23:48;;;;;;;1.90;1.00;;;9.50;99.90;;;;;;5053551;28;20267;-44
2023/04/24 04:26:14;;;;;;;2.17;0.80;;;9.50;99.90;;;;;;5053841;28;20348;-42
2023/04/24 04:28:39;;;;;;;2.20;0.93;;;9.60;99.90;;;;;;5055363;28;20480;-43
2023/04/24 04:31:07;;;;;;;4.40;2.00;;;9.50;99.90;;;;;;5056691;28;20182;-42
2023/04/24 04:33:33;;;;;;;4.30;1.30;;;9.50;99.90;;;;;;5058352;28;20215;-44
2023/04/24 04:35:59;;;;;;;3.83;2.00;;;9.20;99.90;;;;;;5055755;28;20568;-43
2023/04/24 04:38:26;;;;;;;2.00;1.67;;;9.00;99.90;;;;;;5056180;28;20514;-45
2023/04/24 04:40:52;;;;;;;1.67;1.57;;;8.90;99.90;;;;;;5055599;28;20493;-44
2023/04/24 04:43:17;;;;;;;4.83;1.90;;;8.80;99.90;;;;;;5056177;28;20828;-43
2023/04/24 04:45:43;;;;;;;2.57;1.90;;;8.70;99.90;;;;;;5055601;28;20184;-43
2023/04/24 04:48:12;;;;;;;2.40;2.03;;;8.70;99.90;;;;;;5055080;28;20563;-43
2023/04/24 04:50:37;;;;;;;2.37;2.13;;;8.50;99.90;;;;;;5056896;28;20579;-44
2023/04/24 04:53:03;;;;;;;1.83;1.70;;;8.50;99.90;;;;;;5054491;28;20431;-44
2023/04/24 04:55:28;;;;;;;2.27;1.67;;;8.50;99.90;;;;;;5055264;28;20459;-44
2023/04/24 04:57:55;;;;;;;3.63;2.23;;;8.50;99.90;;;;;;5055515;28;20174;-44
2023/04/24 05:00:24;;;;;;;2.13;1.70;;;8.50;99.90;;;;;;5056602;28;20345;-43
2023/04/24 05:02:49;;;;;;;3.57;2.30;;;8.40;99.90;;;;;;5053878;28;20420;-42
2023/04/24 05:05:16;;;;;;;2.00;1.90;;;8.40;99.90;;;;;;5052474;28;20458;-43
2023/04/24 05:07:42;;;;;;;2.33;1.70;;;8.40;99.90;;;;;;5052990;28;20185;-43
2023/04/24 05:10:08;;;;;;;2.70;2.27;;;8.40;99.90;;;;;;5051938;28;20424;-44
2023/04/24 05:12:33;;;;;;;2.90;1.80;;;8.40;99.90;;;;;;5050281;28;20182;-43
2023/04/24 05:14:59;;;;;;;2.83;2.50;;;8.40;99.90;;;;;;5050501;28;20460;-43
2023/04/24 05:17:25;;;;;;;5.60;2.33;;;8.40;99.90;;;;;;5050966;28;20189;-43
2023/04/24 05:19:51;;;;;;;3.50;3.00;;;8.40;99.90;;;;;;5048746;28;20494;-44
2023/04/24 05:22:18;;;;;;;2.90;2.60;;;8.50;99.90;;;;;;5034537;28;20444;-43
2023/04/24 05:24:44;;;;;;;2.80;2.13;;;8.50;99.90;;;;;;5043328;28;20543;-42
2023/04/24 05:27:10;;;;;;;5.03;4.40;;;8.50;99.90;;;;;;5034327;28;20433;-43
2023/04/24 05:29:36;;;;;;;4.10;1.87;;;8.40;99.90;;;;;;5032375;28;20427;-43
2023/04/24 05:32:01;;;;;;;4.53;2.10;;;8.50;99.90;;;;;;5031447;28;20189;-42
2023/04/24 05:34:27;;;;;;;2.50;2.30;;;8.50;99.90;;;;;;5033518;28;20288;-46
2023/04/24 05:36:53;;;;;;;2.80;2.50;;;8.50;99.90;;;;;;5033798;28;20273;-43
2023/04/24 05:39:19;;;;;;;6.03;2.93;;;8.60;99.90;;;;;;5033439;28;20181;-45
2023/04/24 05:41:45;;;;;;;2.87;2.23;;;8.70;99.90;;;;;;5013739;28;20174;-42
2023/04/24 05:44:10;;;;;;;3.37;2.50;;;8.70;99.90;;;;;;5034363;28;20823;-43
2023/04/24 05:46:36;;;;;;;2.87;2.40;;;8.80;99.90;;;;;;5033861;28;20560;-43
2023/04/24 05:49:02;;;;;;;3.70;2.53;;;8.80;99.90;;;;;;5033069;28;20177;-44
2023/04/24 05:51:28;;;;;;;3.00;2.70;;;8.80;99.90;;;;;;5032366;28;20225;-43
2023/04/24 05:53:53;;;;;;;3.60;2.80;;;8.90;99.90;;;;;;5031698;28;20423;-44
2023/04/24 05:56:20;;;;;;;3.90;2.60;;;8.70;99.90;;;;;;5030633;28;20658;-43
2023/04/24 05:58:46;;;;;;;2.87;2.57;;;8.70;99.90;;;;;;5032482;28;20163;-44
2023/04/24 06:01:12;;;;;;;4.97;4.27;;;8.80;99.90;;;;;;5035557;28;20508;-44
2023/04/24 06:03:39;;;;;;;3.20;2.70;;;8.80;99.90;;;;;;5034517;28;20512;-45
2023/04/24 06:06:07;;;;;;;4.63;2.90;;;8.90;27.80;;;;;;5033206;28;20520;-44
2023/04/24 06:08:33;;;;;;;3.60;3.17;;;8.80;10.30;;;;;;5033038;28;20439;-43
2023/04/24 06:10:59;;;;;;;3.13;2.90;;;8.90;1.00;;;;;;5033577;28;20718;-44
2023/04/24 06:13:24;;;;;;;4.00;3.60;;;9.10;1.00;;;;;;5031763;28;20230;-43
2023/04/24 06:15:50;;;;;;;2.90;2.60;;;9.20;1.00;;;;;;5034757;28;20218;-44
2023/04/24 06:18:16;;;;;;;3.40;2.83;;;9.50;1.00;;;;;;5032798;28;20205;-44
2023/04/24 06:20:42;;;;;;;3.30;3.00;;;9.70;1.00;;;;;;5034976;28;20463;-43
2023/04/24 06:23:08;;;;;;;4.27;3.10;;;10.00;99.90;;;;;;5034070;28;20432;-41
2023/04/24 06:25:33;;;;;;;4.83;2.47;;;10.20;99.90;;;;;;5032917;28;20583;-44
2023/04/24 06:27:59;;;;;;;4.53;2.40;;;10.50;1.00;;;;;;5035733;28;20763;-42
2023/04/24 06:30:25;;;;;;;2.00;1.80;;;10.70;99.90;;;;;;5035134;28;20187;-42
2023/04/24 06:32:51;;;;;;;2.50;2.23;;;10.80;1.00;;;;;;5035078;28;20205;-42
2023/04/24 06:35:16;;;;;;;3.10;2.13;;;10.80;99.90;;;;;;5052550;28;20453;-43
2023/04/24 06:37:42;;;;;;;3.30;2.80;;;11.00;1.00;;;;;;5054629;28;20802;-48
2023/04/24 06:40:09;;;;;;;2.47;2.23;;;10.90;72.30;;;;;;5055260;28;20517;-44
2023/04/24 06:42:35;;;;;;;3.27;2.40;;;10.80;1.00;;;;;;5053405;28;20471;-44
2023/04/24 06:45:01;;;;;;;3.10;2.80;;;10.70;99.90;;;;;;5052587;28;20431;-46
2023/04/24 06:47:27;;;;;;;3.00;2.70;;;10.90;1.00;;;;;;5048633;28;20424;-44
2023/04/24 06:49:53;;;;;;;3.10;2.33;;;11.00;1.00;;;;;;5050685;28;20186;-43
2023/04/24 06:52:19;;;;;;;2.70;2.50;;;11.10;99.90;;;;;;5049976;28;20205;-42
2023/04/24 06:54:45;;;;;;;2.80;2.60;;;11.10;85.00;;;;;;5050011;28;20565;-43
2023/04/24 06:57:10;;;;;;;3.67;2.57;;;10.90;1.00;;;;;;5052807;28;20431;-44
2023/04/24 06:59:36;;;;;;;2.40;2.20;;;10.90;1.00;;;;;;5052506;28;20178;-45
2023/04/24 07:02:03;;;;;;;2.57;2.37;;;10.80;1.00;;;;;;5052081;28;20552;-44
2023/04/24 07:04:29;;;;;;;2.37;2.17;;;10.60;1.00;;;;;;5051719;28;20625;-46
2023/04/24 07:06:55;;;;;;;2.77;2.40;;;10.40;1.00;;;;;;5050718;28;20440;-45
2023/04/24 07:09:23;;;;;;;3.70;3.20;;;10.30;40.30;;;;;;5052234;28;20519;-43
2023/04/24 07:11:49;;;;;;;3.30;2.10;;;10.30;93.70;;;;;;5054091;28;20444;-42
2023/04/24 07:14:15;;;;;;;2.37;2.03;;;10.10;1.00;;;;;;5051319;28;20509;-44
2023/04/24 07:16:40;;;;;;;1.93;1.67;;;9.90;99.90;;;;;;5051702;28;20424;-44
2023/04/24 07:19:06;;;;;;;1.97;1.70;;;9.70;1.00;;;;;;5050697;28;20177;-43
2023/04/24 07:21:32;;;;;;;1.87;1.73;;;9.60;99.90;;;;;;5052371;28;20165;-45
2023/04/24 07:23:58;;;;;;;2.33;1.33;;;9.60;1.00;;;;;;5051139;28;20184;-43
2023/04/24 07:26:24;;;;;;;2.30;2.10;;;9.60;99.90;;;;;;5047683;28;20276;-42
2023/04/24 07:28:49;;;;;;;1.90;1.70;;;9.70;99.90;;;;;;5031024;28;20594;-43
2023/04/24 07:31:15;;;;;;;2.37;1.67;;;10.00;99.90;;;;;;5033079;28;20178;-42
2023/04/24 07:33:41;;;;;;;1.83;1.63;;;10.20;99.90;;;;;;5032032;28;20445;-44
2023/04/24 07:36:06;;;;;;;2.53;1.70;;;10.70;1.00;;;;;;5033882;28;20469;-45
2023/04/24 07:38:32;;;;;;;2.33;1.77;;;11.10;1.00;;;;;;5031832;28;20174;-46
2023/04/24 07:40:58;;;;;;;1.73;1.60;;;11.70;1.00;;;;;;5031187;28;20179;-43
2023/04/24 07:43:23;;;;;;;2.63;1.70;;;12.20;99.90;;;;;;5031745;28;20201;-43
2023/04/24 07:45:52;;;;;;;2.23;1.87;;;12.10;1.00;;;;;;5032723;28;20182;-44
2023/04/24 07:48:18;;;;;;;2.37;1.50;;;11.90;96.50;;;;;;5031350;28;20248;-44
2023/04/24 07:50:45;;;;;;;2.53;1.77;;;11.80;1.00;;;;;;5029023;28;20422;-43
2023/04/24 07:53:11;;;;;;;1.57;1.37;;;11.30;1.00;;;;;;5031988;28;20179;-45
2023/04/24 07:55:37;;;;;;;2.43;1.93;;;11.10;91.90;;;;;;5034881;28;20465;-43
2023/04/24 07:58:03;;;;;;;1.90;1.60;;;11.10;99.90;;;;;;5034862;28;20417;-43
2023/04/24 08:00:28;;;;;;;3.37;2.50;;;11.10;99.90;;;;;;5032030;28;20445;-43
2023/04/24 08:02:54;;;;;;;2.90;1.80;;;11.20;1.00;;;;;;5029885;28;20298;-44
2023/04/24 08:05:19;;;;;;;2.40;1.67;;;11.30;99.90;;;;;;5029934;28;20229;-43
2023/04/24 08:07:48;;;;;;;2.70;1.90;;;11.10;99.90;;;;;;5030630;28;20229;-45
2023/04/24 08:10:14;;;;;;;3.90;2.50;;;11.10;99.90;;;;;;5030053;28;20186;-43
2023/04/24 08:12:40;;;;;;;2.10;1.90;;;11.00;99.90;;;;;;5032171;28;20869;-44
2023/04/24 08:15:06;;;;;;;2.60;2.40;;;11.00;77.00;;;;;;5033573;28;20680;-44
2023/04/24 08:17:32;;;;;;;2.43;2.10;;;10.90;42.00;;;;;;5033890;28;20417;-42
2023/04/24 08:20:01;;;;;;;3.37;1.70;;;10.80;99.90;;;;;;5035781;28;20422;-43
2023/04/24 08:22:27;;;;;;;2.60;1.83;;;11.00;99.90;;;;;;5049941;28;20173;-45
2023/04/24 08:24:53;;;;;;;3.03;2.17;;;11.00;24.30;;;;;;5034851;28;20429;-43
2023/04/24 08:27:19;;;;;;;3.30;2.50;;;11.30;14.50;;;;;;5033877;28;20482;-44
2023/04/24 08:29:44;;;;;;;2.37;2.17;;;11.40;1.00;;;;;;5031691;28;20474;-44
2023/04/24 08:32:10;;;;;;;2.20;1.90;;;11.60;99.90;;;;;;5015990;28;20322;-45
2023/04/24 08:34:35;;;;;;;2.00;1.70;;;11.80;99.90;;;;;;5032444;28;20213;-43
2023/04/24 08:37:02;;;;;;;2.80;2.03;;;11.80;99.90;;;;;;5029642;28;20318;-43
2023/04/24 08:39:28;;;;;;;2.23;1.80;;;12.10;99.90;;;;;;5029164;28;20185;-43
2023/04/24 08:41:56;;;;;;;3.20;2.37;;;11.90;99.90;;;;;;5030916;28;20724;-45
2023/04/24 08:44:21;;;;;;;2.80;1.93;;;11.90;97.10;;;;;;5029889;28;20237;-45
2023/04/24 08:46:51;;;;;;;3.10;2.43;;;11.50;74.30;;;;;;5031702;28;20826;-43
2023/04/24 08:49:17;;;;;;;2.33;1.80;;;11.20;99.90;;;;;;5032054;28;20596;-43
2023/04/24 08:51:44;;;;;;;3.63;2.20;;;11.00;99.90;;;;;;5030418;28;20425;-44
2023/04/24 08:54:11;;;;;;;3.90;2.43;;;11.00;99.90;;;;;;5034008;28;20417;-44
2023/04/24 08:56:40;;;;;;;2.13;1.90;;;10.80;99.90;;;;;;5032507;28;20527;-44
2023/04/24 08:59:06;;;;;;;2.50;2.27;;;10.80;99.90;;;;;;5032675;28;20432;-43
2023/04/24 09:01:39;;;;;;;2.20;1.90;;;11.20;99.90;;;;;;5033777;28;20413;-43
2023/04/24 09:04:07;;;;;;;2.40;2.20;;;11.30;99.90;;;;;;5033819;28;20587;-44
2023/04/24 09:06:33;;;;;;;2.63;2.27;;;11.40;99.90;;;;;;5030663;28;20421;-44
2023/04/24 09:09:03;;;;;;;2.30;1.90;;;11.30;99.90;;;;;;5033008;28;20410;-44
2023/04/24 09:11:32;;;;;;;2.50;2.07;;;11.40;99.90;;;;;;5035184;28;20316;-43
2023/04/24 09:13:58;;;;;;;2.50;2.03;;;11.50;99.90;;;;;;5038199;28;20432;-44
2023/04/24 09:16:25;;;;;;;2.23;2.03;;;11.30;16.90;;;;;;5038510;28;20456;-44
2023/04/24 09:18:51;;;;;;;5.00;2.23;;;11.40;1.00;;;;;;5037945;28;20433;-44
2023/04/24 09:21:17;;;;;;;2.73;2.27;;;11.80;1.00;;;;;;5036287;28;20441;-44
2023/04/24 09:23:43;;;;;;;3.33;2.10;;;12.00;1.00;;;;;;5036303;28;20824;-45
2023/04/24 09:26:10;;;;;;;2.10;1.43;;;12.10;1.00;;;;;;5037323;28;20563;-44
2023/04/24 09:28:37;;;;;;;2.10;1.60;;;12.20;1.00;;;;;;5035483;28;20226;-44
2023/04/24 09:31:17;;;;;;;2.13;1.90;;;12.30;1.00;;;;;;5033695;28;20429;-44
2023/04/24 09:34:03;;;;;;;3.10;1.63;;;12.50;1.00;;;;;;5033365;28;20413;-46
2023/04/24 09:36:29;;;;;;;3.50;1.47;;;12.90;1.00;;;;;;5034583;28;20488;-43
2023/04/24 09:38:59;;;;;;;1.43;1.27;;;13.20;1.00;;;;;;5033756;28;20428;-44
2023/04/24 09:41:25;;;;;;;1.97;1.13;;;13.60;1.00;;;;;;5035984;28;20413;-44
2023/04/24 09:43:53;;;;;;;1.70;1.13;;;13.00;1.00;;;;;;5034000;28;20531;-45
2023/04/24 09:46:21;;;;;;;1.60;1.20;;;13.00;1.00;;;;;;5032590;28;20432;-44
2023/04/24 09:48:46;;;;;;;1.40;1.30;;;13.00;1.00;;;;;;5032049;28;20435;-44
2023/04/24 09:51:12;;;;;;;1.50;1.40;;;13.10;1.00;;;;;;5032070;28;20697;-45
2023/04/24 09:53:41;;;;;;;1.77;1.27;;;12.80;1.00;;;;;;5034092;28;20726;-44
2023/04/24 09:56:12;;;;;;;1.57;1.43;;;12.50;1.00;;;;;;5035656;28;20465;-43
2023/04/24 09:58:37;;;;;;;5.00;1.60;;;12.30;1.00;;;;;;5033385;28;20889;-44
2023/04/24 10:01:03;;;;;;;1.70;1.43;;;11.90;1.00;;;;;;5032062;28;20699;-44
2023/04/24 10:03:33;;;;;;;3.00;1.67;;;12.00;1.00;;;;;;5033626;28;20228;-44
2023/04/24 10:06:00;;;;;;;2.30;1.63;;;12.40;1.00;;;;;;5036563;28;20413;-45
2023/04/24 10:08:26;;;;;;;1.40;1.30;;;13.00;1.00;;;;;;5036103;28;20508;-45
2023/04/24 10:10:52;;;;;;;4.50;3.03;;;13.40;1.00;;;;;;5035386;28;20536;-45
2023/04/24 10:13:18;;;;;;;3.00;1.50;;;13.80;1.00;;;;;;5032943;28;20183;-45
2023/04/24 10:15:44;;;;;;;1.67;1.30;;;14.10;1.00;;;;;;5032206;28;20910;-49
2023/04/24 10:18:11;;;;;;;2.23;1.30;;;14.00;1.00;;;;;;5033182;28;20178;-46
2023/04/24 10:20:38;;;;;;;2.57;1.30;;;14.30;1.00;;;;;;5032588;28;20455;-47
2023/04/24 10:23:05;;;;;;;1.93;1.37;;;14.10;1.00;;;;;;5034762;28;20655;-44
2023/04/24 10:25:32;;;;;;;2.70;1.33;;;14.00;1.00;;;;;;5035923;28;20421;-44
2023/04/24 10:27:59;;;;;;;1.90;1.60;;;13.90;1.00;;;;;;5035048;28;20476;-45
2023/04/24 10:30:30;;;;;;;1.90;1.40;;;13.50;1.00;;;;;;5034083;28;21006;-41
2023/04/24 10:32:55;;;;;;;1.77;1.00;;;12.80;1.00;;;;;;5033505;28;20465;-42
2023/04/24 10:35:26;;;;;;;2.70;1.50;;;12.40;1.00;;;;;;5031920;28;20481;-43
2023/04/24 10:37:57;;;;;;;1.87;1.23;;;12.50;1.00;;;;;;5032840;28;20425;-42
2023/04/24 10:40:29;;;;;;;1.80;1.40;;;12.50;1.00;;;;;;5031909;28;20405;-43
2023/04/24 10:42:56;;;;;;;1.47;1.37;;;12.70;1.00;;;;;;5033082;28;20527;-43
2023/04/24 10:45:23;;;;;;;1.53;1.30;;;12.50;1.00;;;;;;5032651;28;20633;-42
2023/04/24 10:48:01;;;;;;;1.93;1.67;;;12.50;1.00;;;;;;5032861;28;20421;-41
2023/04/24 10:50:28;;;;;;;1.77;1.47;;;12.70;1.00;;;;;;5032255;28;20526;-43
2023/04/24 10:52:56;;;;;;;1.70;1.33;;;12.70;1.00;;;;;;5033766;28;20532;-43
2023/04/24 10:55:46;;;;;;;1.23;1.13;;;12.30;1.00;;;;;;5034366;28;20475;-42
2023/04/24 10:58:12;;;;;;;2.07;1.00;;;12.10;1.00;;;;;;5031253;28;20440;-43
2023/04/24 11:00:39;;;;;;;1.40;1.30;;;12.10;1.00;;;;;;5029850;28;20413;-42
2023/04/24 11:03:24;;;;;;;1.67;1.40;;;12.00;1.00;;;;;;5050478;28;20444;-44
2023/04/24 11:05:57;;;;;;;3.67;1.50;;;11.90;1.00;;;;;;5034982;28;20424;-42
2023/04/24 11:08:29;;;;;;;1.83;1.57;;;12.30;1.00;;;;;;5052117;28;20698;-43
2023/04/24 11:11:09;;;;;;;2.90;1.77;;;12.30;1.00;;;;;;5051453;28;20424;-43
2023/04/24 11:13:54;;;;;;;3.70;1.90;;;12.10;1.00;;;;;;5053697;28;20470;-44
2023/04/24 11:16:39;;;;;;;2.40;1.87;;;12.30;1.00;;;;;;5053919;28;20463;-44
2023/04/24 11:19:11;;;;;;;2.07;1.77;;;12.30;1.00;;;;;;5053372;28;20424;-43
2023/04/24 11:21:43;;;;;;;2.93;1.80;;;12.00;1.00;;;;;;5055693;28;20400;-43
2023/04/24 11:24:29;;;;;;;2.20;1.70;;;11.90;1.00;;;;;;5055494;28;20714;-42
2023/04/24 11:26:56;;;;;;;2.83;1.80;;;11.90;1.00;;;;;;5035204;28;20433;-47
2023/04/24 11:29:22;;;;;;;1.80;1.37;;;11.80;1.00;;;;;;5050327;28;20463;-44
2023/04/24 11:31:50;;;;;;;3.17;1.50;;;11.50;1.00;;;;;;5051652;28;20420;-43
2023/04/24 11:34:17;;;;;;;5.23;2.17;;;11.20;1.00;;;;;;5052673;28;20845;-45
2023/04/24 11:36:44;;;;;;;2.50;1.30;;;10.90;1.00;;;;;;5053107;28;20431;-45
2023/04/24 11:39:11;;;;;;;2.00;1.30;;;11.00;1.00;;;;;;5053459;28;20416;-45
2023/04/24 11:41:36;;;;;;;2.93;1.63;;;11.20;1.00;;;;;;5054270;28;20483;-42
2023/04/24 11:44:05;;;;;;;3.40;2.87;;;11.20;1.00;;;;;;5052257;28;20514;-44
2023/04/24 11:46:31;;;;;;;2.67;1.60;;;11.20;1.00;;;;;;5052336;28;20546;-46
2023/04/24 11:48:59;;;;;;;3.43;1.30;;;11.20;1.00;;;;;;5051677;28;20424;-45
2023/04/24 11:51:27;;;;;;;2.50;1.67;;;11.20;1.00;;;;;;5053201;28;21094;-44
2023/04/24 11:53:55;;;;;;;3.17;1.60;;;11.50;1.00;;;;;;5053282;28;20420;-43
2023/04/24 11:56:24;;;;;;;2.70;1.90;;;11.70;1.00;;;;;;5054365;28;20562;-44
2023/04/24 11:58:53;;;;;;;1.77;1.67;;;12.00;1.00;;;;;;5054421;28;20455;-43
2023/04/24 12:01:19;;;;;;;1.60;1.50;;;11.90;1.00;;;;;;5053001;28;20528;-43
2023/04/24 12:03:50;;;;;;;1.40;1.30;;;11.80;1.00;;;;;;5054959;28;20514;-43
2023/04/24 12:06:16;;;;;;;4.50;2.47;;;11.60;1.00;;;;;;5054120;28;20182;-42
2023/04/24 12:08:42;;;;;;;2.10;1.80;;;11.30;1.00;;;;;;5055480;28;20424;-42
2023/04/24 12:11:07;;;;;;;3.43;1.80;;;11.20;1.00;;;;;;5052597;28;20602;-44
2023/04/24 12:13:36;;;;;;;4.03;1.97;;;11.00;1.00;;;;;;5053892;28;20174;-42
2023/04/24 12:16:04;;;;;;;3.07;2.10;;;10.90;1.00;;;;;;5053276;28;20232;-43
2023/04/24 12:18:30;;;;;;;2.57;2.20;;;11.00;1.00;;;;;;5052034;28;20559;-43
2023/04/24 12:21:15;;;;;;;2.20;2.00;;;11.10;1.00;;;;;;5051345;28;20480;-44
2023/04/24 12:23:43;;;;;;;3.10;2.20;;;11.40;1.00;;;;;;5048314;28;20676;-44
2023/04/24 12:26:09;;;;;;;2.03;1.80;;;11.50;1.00;;;;;;5049291;28;20475;-43
2023/04/24 12:28:36;;;;;;;2.73;2.43;;;11.70;1.00;;;;;;5048069;28;20468;-44
2023/04/24 12:31:03;;;;;;;2.57;1.80;;;11.60;1.00;;;;;;5052764;28;20587;-43
2023/04/24 12:33:33;;;;;;;3.40;1.70;;;12.20;1.00;;;;;;5052735;28;20424;-43
2023/04/24 12:35:59;;;;;;;2.40;1.70;;;12.20;1.00;;;;;;5052507;28;20626;-43
2023/04/24 12:38:26;;;;;;;1.83;1.70;;;12.20;1.00;;;;;;5034174;28;20515;-44
2023/04/24 12:41:06;;;;;;;2.60;1.30;;;12.10;1.00;;;;;;5053068;28;20822;-43
2023/04/24 12:43:32;;;;;;;1.50;1.33;;;12.30;1.00;;;;;;5048305;28;20455;-43
2023/04/24 12:45:58;;;;;;;1.53;1.33;;;12.10;1.00;;;;;;5053277;28;20462;-42
2023/04/24 12:48:27;;;;;;;2.97;1.60;;;11.80;1.00;;;;;;5057813;28;20174;-43
2023/04/24 12:50:53;;;;;;;2.43;1.63;;;11.70;1.00;;;;;;5057909;28;20436;-42
2023/04/24 12:53:19;;;;;;;1.90;1.70;;;11.80;1.00;;;;;;5057591;28;20860;-48
2023/04/24 12:55:46;;;;;;;1.80;1.70;;;11.70;1.00;;;;;;5039449;28;20521;-48